sensor_id;sensor_type;location;lat;lon;timestamp;P1;durP1;ratioP1;P2;durP2;ratioP2
41623;SDS011;27319;50.306;18.926;2023-08-06T00:00:45;23.70;;;14.35;;
41623;SDS011;27319;50.306;18.926;2023-08-06T00:04:46;26.63;;;15.80;;
41623;SDS011;27319;50.306;18.926;2023-08-06T00:08:46;27.67;;;14.70;;
41623;SDS011;27319;50.306;18.926;2023-08-06T00:12:47;22.52;;;14.15;;
41623;SDS011;27319;50.306;18.926;2023-08-06T00:16:48;21.60;;;13.40;;
41623;SDS011;27319;50.306;18.926;2023-08-06T00:20:49;24.15;;;13.98;;
41623;SDS011;27319;50.306;18.926;2023-08-06T00:24:49;27.10;;;14.75;;
41623;SDS011;27319;50.306;18.926;2023-08-06T00:28:50;25.00;;;14.73;;
41623;SDS011;27319;50.306;18.926;2023-08-06T00:32:50;22.27;;;13.18;;
41623;SDS011;27319;50.306;18.926;2023-08-06T00:36:51;23.80;;;12.35;;
41623;SDS011;27319;50.306;18.926;2023-08-06T00:40:52;19.65;;;12.50;;
41623;SDS011;27319;50.306;18.926;2023-08-06T00:44:52;21.10;;;13.45;;
41623;SDS011;27319;50.306;18.926;2023-08-06T00:48:53;21.92;;;12.95;;
41623;SDS011;27319;50.306;18.926;2023-08-06T00:52:54;23.55;;;13.35;;
41623;SDS011;27319;50.306;18.926;2023-08-06T00:56:55;20.55;;;12.05;;
41623;SDS011;27319;50.306;18.926;2023-08-06T01:00:55;19.67;;;11.48;;
41623;SDS011;27319;50.306;18.926;2023-08-06T01:04:56;20.88;;;11.52;;
41623;SDS011;27319;50.306;18.926;2023-08-06T01:08:58;18.08;;;11.07;;
41623;SDS011;27319;50.306;18.926;2023-08-06T01:13:08;16.05;;;10.90;;
41623;SDS011;27319;50.306;18.926;2023-08-06T01:17:09;17.90;;;9.65;;
41623;SDS011;27319;50.306;18.926;2023-08-06T01:21:10;15.07;;;10.15;;
41623;SDS011;27319;50.306;18.926;2023-08-06T01:25:10;15.05;;;10.13;;
41623;SDS011;27319;50.306;18.926;2023-08-06T01:32:44;14.20;;;9.50;;
41623;SDS011;27319;50.306;18.926;2023-08-06T01:36:44;14.45;;;8.75;;
41623;SDS011;27319;50.306;18.926;2023-08-06T01:40:45;14.50;;;8.95;;
41623;SDS011;27319;50.306;18.926;2023-08-06T01:44:45;15.68;;;10.27;;
41623;SDS011;27319;50.306;18.926;2023-08-06T01:48:46;15.48;;;10.05;;
41623;SDS011;27319;50.306;18.926;2023-08-06T01:52:47;15.07;;;10.05;;
41623;SDS011;27319;50.306;18.926;2023-08-06T01:56:48;18.20;;;10.65;;
41623;SDS011;27319;50.306;18.926;2023-08-06T02:00:48;18.60;;;11.32;;
41623;SDS011;27319;50.306;18.926;2023-08-06T02:04:49;15.13;;;11.50;;
41623;SDS011;27319;50.306;18.926;2023-08-06T02:08:49;20.35;;;11.57;;
41623;SDS011;27319;50.306;18.926;2023-08-06T02:12:50;16.48;;;10.73;;
41623;SDS011;27319;50.306;18.926;2023-08-06T02:16:51;17.27;;;10.75;;
41623;SDS011;27319;50.306;18.926;2023-08-06T02:20:58;18.05;;;11.05;;
41623;SDS011;27319;50.306;18.926;2023-08-06T02:24:58;19.42;;;12.90;;
41623;SDS011;27319;50.306;18.926;2023-08-06T02:28:59;20.27;;;13.10;;
41623;SDS011;27319;50.306;18.926;2023-08-06T02:32:59;18.08;;;12.02;;
41623;SDS011;27319;50.306;18.926;2023-08-06T02:37:00;15.73;;;11.73;;
41623;SDS011;27319;50.306;18.926;2023-08-06T02:41:04;15.30;;;11.23;;
41623;SDS011;27319;50.306;18.926;2023-08-06T02:45:05;15.02;;;12.07;;
41623;SDS011;27319;50.306;18.926;2023-08-06T02:49:06;17.70;;;12.15;;
41623;SDS011;27319;50.306;18.926;2023-08-06T02:53:07;13.70;;;11.57;;
41623;SDS011;27319;50.306;18.926;2023-08-06T02:57:07;14.43;;;11.90;;
41623;SDS011;27319;50.306;18.926;2023-08-06T03:01:07;16.58;;;11.75;;
41623;SDS011;27319;50.306;18.926;2023-08-06T03:05:08;11.15;;;9.18;;
41623;SDS011;27319;50.306;18.926;2023-08-06T03:09:08;11.57;;;8.85;;
41623;SDS011;27319;50.306;18.926;2023-08-06T03:13:09;14.82;;;10.30;;
41623;SDS011;27319;50.306;18.926;2023-08-06T03:17:10;13.48;;;10.05;;
41623;SDS011;27319;50.306;18.926;2023-08-06T03:21:11;15.93;;;11.43;;
41623;SDS011;27319;50.306;18.926;2023-08-06T03:25:12;10.88;;;9.60;;
41623;SDS011;27319;50.306;18.926;2023-08-06T03:29:12;14.48;;;10.68;;
41623;SDS011;27319;50.306;18.926;2023-08-06T03:33:13;12.25;;;10.23;;
41623;SDS011;27319;50.306;18.926;2023-08-06T03:37:14;12.52;;;9.95;;
41623;SDS011;27319;50.306;18.926;2023-08-06T03:41:15;14.55;;;10.65;;
41623;SDS011;27319;50.306;18.926;2023-08-06T03:45:15;14.63;;;10.30;;
41623;SDS011;27319;50.306;18.926;2023-08-06T03:49:16;13.60;;;10.98;;
41623;SDS011;27319;50.306;18.926;2023-08-06T03:53:17;15.57;;;10.85;;
41623;SDS011;27319;50.306;18.926;2023-08-06T03:57:17;17.65;;;11.75;;
41623;SDS011;27319;50.306;18.926;2023-08-06T04:01:18;17.42;;;11.02;;
41623;SDS011;27319;50.306;18.926;2023-08-06T04:05:19;16.27;;;12.05;;
41623;SDS011;27319;50.306;18.926;2023-08-06T04:09:19;26.85;;;16.80;;
41623;SDS011;27319;50.306;18.926;2023-08-06T04:13:32;22.10;;;15.15;;
41623;SDS011;27319;50.306;18.926;2023-08-06T04:17:33;23.60;;;14.95;;
41623;SDS011;27319;50.306;18.926;2023-08-06T04:21:34;26.17;;;17.15;;
41623;SDS011;27319;50.306;18.926;2023-08-06T04:25:35;29.17;;;17.23;;
41623;SDS011;27319;50.306;18.926;2023-08-06T04:29:38;27.42;;;17.05;;
41623;SDS011;27319;50.306;18.926;2023-08-06T04:33:41;24.73;;;16.13;;
41623;SDS011;27319;50.306;18.926;2023-08-06T04:37:42;29.25;;;17.58;;
41623;SDS011;27319;50.306;18.926;2023-08-06T04:41:43;30.38;;;16.50;;
41623;SDS011;27319;50.306;18.926;2023-08-06T04:45:47;30.65;;;17.25;;
41623;SDS011;27319;50.306;18.926;2023-08-06T04:49:47;33.08;;;16.80;;
41623;SDS011;27319;50.306;18.926;2023-08-06T04:53:47;36.22;;;18.55;;
41623;SDS011;27319;50.306;18.926;2023-08-06T04:57:48;35.50;;;17.40;;
41623;SDS011;27319;50.306;18.926;2023-08-06T05:01:49;33.47;;;16.02;;
41623;SDS011;27319;50.306;18.926;2023-08-06T05:05:50;33.38;;;16.52;;
41623;SDS011;27319;50.306;18.926;2023-08-06T05:09:51;28.27;;;14.27;;
41623;SDS011;27319;50.306;18.926;2023-08-06T05:13:51;31.10;;;14.60;;
41623;SDS011;27319;50.306;18.926;2023-08-06T05:17:52;34.97;;;16.55;;
41623;SDS011;27319;50.306;18.926;2023-08-06T05:21:53;29.95;;;14.93;;
41623;SDS011;27319;50.306;18.926;2023-08-06T05:25:53;17.15;;;9.10;;
41623;SDS011;27319;50.306;18.926;2023-08-06T05:29:54;13.27;;;5.47;;
41623;SDS011;27319;50.306;18.926;2023-08-06T05:33:55;8.32;;;4.78;;
41623;SDS011;27319;50.306;18.926;2023-08-06T05:37:56;5.22;;;3.30;;
41623;SDS011;27319;50.306;18.926;2023-08-06T05:41:57;3.70;;;2.70;;
41623;SDS011;27319;50.306;18.926;2023-08-06T05:44:57;3.50;;;2.05;;
41623;SDS011;27319;50.306;18.926;2023-08-06T05:47:58;3.08;;;2.50;;
41623;SDS011;27319;50.306;18.926;2023-08-06T05:50:59;2.05;;;1.60;;
41623;SDS011;27319;50.306;18.926;2023-08-06T05:54:00;1.88;;;1.35;;
41623;SDS011;27319;50.306;18.926;2023-08-06T05:57:01;5.38;;;1.75;;
41623;SDS011;27319;50.306;18.926;2023-08-06T06:00:02;1.50;;;1.40;;
41623;SDS011;27319;50.306;18.926;2023-08-06T06:03:03;1.95;;;1.50;;
41623;SDS011;27319;50.306;18.926;2023-08-06T06:06:04;4.35;;;1.58;;
41623;SDS011;27319;50.306;18.926;2023-08-06T06:09:05;1.30;;;1.00;;
41623;SDS011;27319;50.306;18.926;2023-08-06T06:12:06;1.10;;;1.00;;
41623;SDS011;27319;50.306;18.926;2023-08-06T06:15:07;0.93;;;0.93;;
41623;SDS011;27319;50.306;18.926;2023-08-06T06:18:08;1.67;;;1.10;;
41623;SDS011;27319;50.306;18.926;2023-08-06T06:21:09;1.25;;;0.80;;
41623;SDS011;27319;50.306;18.926;2023-08-06T06:24:11;1.85;;;1.00;;
41623;SDS011;27319;50.306;18.926;2023-08-06T06:28:12;3.08;;;0.93;;
41623;SDS011;27319;50.306;18.926;2023-08-06T06:32:12;0.85;;;0.80;;
41623;SDS011;27319;50.306;18.926;2023-08-06T06:36:13;1.45;;;1.20;;
41623;SDS011;27319;50.306;18.926;2023-08-06T06:40:14;2.05;;;1.50;;
41623;SDS011;27319;50.306;18.926;2023-08-06T06:44:14;1.58;;;0.90;;
41623;SDS011;27319;50.306;18.926;2023-08-06T06:48:15;1.70;;;1.20;;
41623;SDS011;27319;50.306;18.926;2023-08-06T06:52:25;2.03;;;0.90;;
41623;SDS011;27319;50.306;18.926;2023-08-06T06:56:26;1.25;;;1.05;;
41623;SDS011;27319;50.306;18.926;2023-08-06T07:00:27;1.20;;;0.98;;
41623;SDS011;27319;50.306;18.926;2023-08-06T07:04:27;1.50;;;1.13;;
41623;SDS011;27319;50.306;18.926;2023-08-06T07:08:28;2.63;;;1.38;;
41623;SDS011;27319;50.306;18.926;2023-08-06T07:12:29;1.67;;;1.35;;
41623;SDS011;27319;50.306;18.926;2023-08-06T07:16:30;1.15;;;1.00;;
41623;SDS011;27319;50.306;18.926;2023-08-06T07:20:37;1.20;;;1.00;;
41623;SDS011;27319;50.306;18.926;2023-08-06T07:24:38;1.65;;;1.55;;
41623;SDS011;27319;50.306;18.926;2023-08-06T07:28:38;1.85;;;1.27;;
41623;SDS011;27319;50.306;18.926;2023-08-06T07:32:39;2.58;;;1.60;;
41623;SDS011;27319;50.306;18.926;2023-08-06T07:36:40;1.65;;;1.08;;
41623;SDS011;27319;50.306;18.926;2023-08-06T07:40:41;1.38;;;1.10;;
41623;SDS011;27319;50.306;18.926;2023-08-06T07:44:41;1.33;;;1.17;;
41623;SDS011;27319;50.306;18.926;2023-08-06T07:48:42;3.72;;;1.40;;
41623;SDS011;27319;50.306;18.926;2023-08-06T07:52:42;1.20;;;1.10;;
41623;SDS011;27319;50.306;18.926;2023-08-06T07:56:43;1.00;;;1.00;;
41623;SDS011;27319;50.306;18.926;2023-08-06T08:00:44;2.83;;;1.42;;
41623;SDS011;27319;50.306;18.926;2023-08-06T08:04:45;1.45;;;1.20;;
41623;SDS011;27319;50.306;18.926;2023-08-06T08:08:46;1.15;;;1.02;;
41623;SDS011;27319;50.306;18.926;2023-08-06T08:12:50;1.25;;;1.02;;
41623;SDS011;27319;50.306;18.926;2023-08-06T08:16:51;1.10;;;1.00;;
41623;SDS011;27319;50.306;18.926;2023-08-06T08:20:52;1.50;;;1.40;;
41623;SDS011;27319;50.306;18.926;2023-08-06T08:24:53;1.40;;;1.30;;
41623;SDS011;27319;50.306;18.926;2023-08-06T08:28:53;1.20;;;1.15;;
41623;SDS011;27319;50.306;18.926;2023-08-06T08:32:54;1.65;;;1.55;;
41623;SDS011;27319;50.306;18.926;2023-08-06T08:36:55;1.60;;;1.27;;
41623;SDS011;27319;50.306;18.926;2023-08-06T08:40:56;1.20;;;1.10;;
41623;SDS011;27319;50.306;18.926;2023-08-06T08:44:56;1.50;;;1.40;;
41623;SDS011;27319;50.306;18.926;2023-08-06T08:48:57;1.73;;;1.48;;
41623;SDS011;27319;50.306;18.926;2023-08-06T08:52:57;1.60;;;1.23;;
41623;SDS011;27319;50.306;18.926;2023-08-06T08:56:06;1.63;;;1.52;;
41623;SDS011;27319;50.306;18.926;2023-08-06T08:59:07;1.70;;;1.60;;
41623;SDS011;27319;50.306;18.926;2023-08-06T09:02:08;1.60;;;1.40;;
41623;SDS011;27319;50.306;18.926;2023-08-06T09:05:11;1.52;;;1.30;;
41623;SDS011;27319;50.306;18.926;2023-08-06T09:08:15;2.05;;;1.40;;
41623;SDS011;27319;50.306;18.926;2023-08-06T09:12:15;1.38;;;1.27;;
41623;SDS011;27319;50.306;18.926;2023-08-06T09:16:15;1.40;;;1.15;;
41623;SDS011;27319;50.306;18.926;2023-08-06T09:20:16;1.60;;;1.48;;
41623;SDS011;27319;50.306;18.926;2023-08-06T09:24:20;1.70;;;1.60;;
41623;SDS011;27319;50.306;18.926;2023-08-06T09:28:23;1.90;;;1.40;;
41623;SDS011;27319;50.306;18.926;2023-08-06T09:32:24;1.33;;;1.23;;
41623;SDS011;27319;50.306;18.926;2023-08-06T09:36:25;1.35;;;1.25;;
41623;SDS011;27319;50.306;18.926;2023-08-06T09:40:31;2.00;;;1.33;;
41623;SDS011;27319;50.306;18.926;2023-08-06T09:44:30;0.95;;;0.95;;
41623;SDS011;27319;50.306;18.926;2023-08-06T09:48:30;0.90;;;0.90;;
41623;SDS011;27319;50.306;18.926;2023-08-06T09:52:30;0.93;;;0.88;;
41623;SDS011;27319;50.306;18.926;2023-08-06T09:56:31;0.80;;;0.80;;
41623;SDS011;27319;50.306;18.926;2023-08-06T10:00:32;0.70;;;0.70;;
41623;SDS011;27319;50.306;18.926;2023-08-06T10:04:33;0.80;;;0.80;;
41623;SDS011;27319;50.306;18.926;2023-08-06T10:08:33;1.13;;;1.02;;
41623;SDS011;27319;50.306;18.926;2023-08-06T10:12:35;1.05;;;0.95;;
41623;SDS011;27319;50.306;18.926;2023-08-06T10:16:35;1.00;;;0.90;;
41623;SDS011;27319;50.306;18.926;2023-08-06T10:20:35;1.42;;;0.90;;
41623;SDS011;27319;50.306;18.926;2023-08-06T10:28:39;1.65;;;1.17;;
41623;SDS011;27319;50.306;18.926;2023-08-06T10:32:58;1.52;;;1.20;;
41623;SDS011;27319;50.306;18.926;2023-08-06T10:36:37;3.22;;;1.20;;
41623;SDS011;27319;50.306;18.926;2023-08-06T10:40:41;1.50;;;1.38;;
41623;SDS011;27319;50.306;18.926;2023-08-06T10:48:53;2.83;;;1.90;;
41623;SDS011;27319;50.306;18.926;2023-08-06T10:52:53;1.58;;;1.48;;
41623;SDS011;27319;50.306;18.926;2023-08-06T10:56:54;1.90;;;1.70;;
41623;SDS011;27319;50.306;18.926;2023-08-06T11:00:55;2.45;;;1.58;;
41623;SDS011;27319;50.306;18.926;2023-08-06T11:04:55;2.40;;;2.03;;
41623;SDS011;27319;50.306;18.926;2023-08-06T11:07:56;2.08;;;1.80;;
41623;SDS011;27319;50.306;18.926;2023-08-06T11:11:07;1.88;;;1.60;;
41623;SDS011;27319;50.306;18.926;2023-08-06T11:14:14;1.40;;;1.30;;
41623;SDS011;27319;50.306;18.926;2023-08-06T11:17:16;1.50;;;1.40;;
41623;SDS011;27319;50.306;18.926;2023-08-06T11:20:17;1.95;;;1.63;;
41623;SDS011;27319;50.306;18.926;2023-08-06T11:23:22;2.28;;;1.70;;
41623;SDS011;27319;50.306;18.926;2023-08-06T11:27:22;1.75;;;1.60;;
41623;SDS011;27319;50.306;18.926;2023-08-06T11:31:23;3.85;;;1.60;;
41623;SDS011;27319;50.306;18.926;2023-08-06T11:35:24;1.42;;;1.30;;
41623;SDS011;27319;50.306;18.926;2023-08-06T11:39:24;4.22;;;1.48;;
41623;SDS011;27319;50.306;18.926;2023-08-06T11:43:29;2.17;;;1.70;;
41623;SDS011;27319;50.306;18.926;2023-08-06T11:47:28;2.35;;;1.77;;
41623;SDS011;27319;50.306;18.926;2023-08-06T11:51:32;3.53;;;1.95;;
41623;SDS011;27319;50.306;18.926;2023-08-06T11:55:32;2.67;;;1.60;;
41623;SDS011;27319;50.306;18.926;2023-08-06T11:59:01;1.92;;;1.73;;
41623;SDS011;27319;50.306;18.926;2023-08-06T12:02:03;1.67;;;1.58;;
41623;SDS011;27319;50.306;18.926;2023-08-06T12:05:14;2.28;;;1.90;;
41623;SDS011;27319;50.306;18.926;2023-08-06T12:08:16;2.33;;;1.90;;
41623;SDS011;27319;50.306;18.926;2023-08-06T12:11:20;2.70;;;2.22;;
41623;SDS011;27319;50.306;18.926;2023-08-06T12:14:21;3.80;;;2.60;;
41623;SDS011;27319;50.306;18.926;2023-08-06T12:17:24;2.65;;;1.95;;
41623;SDS011;27319;50.306;18.926;2023-08-06T12:20:25;3.50;;;1.75;;
41623;SDS011;27319;50.306;18.926;2023-08-06T12:24:26;1.80;;;1.70;;
41623;SDS011;27319;50.306;18.926;2023-08-06T12:28:26;1.92;;;1.73;;
41623;SDS011;27319;50.306;18.926;2023-08-06T12:32:27;1.95;;;1.50;;
41623;SDS011;27319;50.306;18.926;2023-08-06T12:36:28;1.35;;;1.25;;
41623;SDS011;27319;50.306;18.926;2023-08-06T12:39:48;1.77;;;1.20;;
41623;SDS011;27319;50.306;18.926;2023-08-06T12:43:49;1.85;;;1.40;;
41623;SDS011;27319;50.306;18.926;2023-08-06T12:47:49;1.88;;;1.60;;
41623;SDS011;27319;50.306;18.926;2023-08-06T12:51:50;2.60;;;1.60;;
41623;SDS011;27319;50.306;18.926;2023-08-06T12:55:51;2.25;;;1.65;;
41623;SDS011;27319;50.306;18.926;2023-08-06T12:58:52;1.88;;;1.50;;
41623;SDS011;27319;50.306;18.926;2023-08-06T13:02:52;1.40;;;1.30;;
41623;SDS011;27319;50.306;18.926;2023-08-06T13:06:53;1.40;;;1.30;;
41623;SDS011;27319;50.306;18.926;2023-08-06T13:10:55;1.90;;;1.60;;
41623;SDS011;27319;50.306;18.926;2023-08-06T13:14:55;2.33;;;1.75;;
41623;SDS011;27319;50.306;18.926;2023-08-06T13:18:56;1.70;;;1.50;;
41623;SDS011;27319;50.306;18.926;2023-08-06T13:22:58;3.55;;;1.35;;
41623;SDS011;27319;50.306;18.926;2023-08-06T13:26:58;1.17;;;1.08;;
41623;SDS011;27319;50.306;18.926;2023-08-06T13:30:58;1.23;;;1.13;;
41623;SDS011;27319;50.306;18.926;2023-08-06T13:34:59;1.20;;;1.10;;
41623;SDS011;27319;50.306;18.926;2023-08-06T13:39:00;2.35;;;1.38;;
41623;SDS011;27319;50.306;18.926;2023-08-06T13:43:01;3.55;;;1.58;;
41623;SDS011;27319;50.306;18.926;2023-08-06T13:47:01;1.20;;;1.08;;
41623;SDS011;27319;50.306;18.926;2023-08-06T13:51:02;1.35;;;1.20;;
41623;SDS011;27319;50.306;18.926;2023-08-06T13:55:03;1.45;;;1.08;;
41623;SDS011;27319;50.306;18.926;2023-08-06T13:59:04;1.38;;;1.27;;
41623;SDS011;27319;50.306;18.926;2023-08-06T14:03:00;1.30;;;1.20;;
41623;SDS011;27319;50.306;18.926;2023-08-06T14:07:01;1.60;;;1.33;;
41623;SDS011;27319;50.306;18.926;2023-08-06T14:11:02;2.28;;;1.35;;
41623;SDS011;27319;50.306;18.926;2023-08-06T14:15:03;1.10;;;1.00;;
41623;SDS011;27319;50.306;18.926;2023-08-06T14:19:03;2.67;;;0.90;;
41623;SDS011;27319;50.306;18.926;2023-08-06T14:23:04;1.30;;;1.00;;
41623;SDS011;27319;50.306;18.926;2023-08-06T14:27:05;0.95;;;0.90;;
41623;SDS011;27319;50.306;18.926;2023-08-06T14:31:05;1.30;;;1.20;;
41623;SDS011;27319;50.306;18.926;2023-08-06T14:35:06;1.15;;;1.08;;
41623;SDS011;27319;50.306;18.926;2023-08-06T14:39:07;1.63;;;1.17;;
41623;SDS011;27319;50.306;18.926;2023-08-06T14:43:08;3.03;;;1.50;;
41623;SDS011;27319;50.306;18.926;2023-08-06T14:47:09;1.48;;;1.30;;
41623;SDS011;27319;50.306;18.926;2023-08-06T14:51:09;2.00;;;1.38;;
41623;SDS011;27319;50.306;18.926;2023-08-06T14:55:10;1.60;;;1.30;;
41623;SDS011;27319;50.306;18.926;2023-08-06T14:59:11;1.50;;;1.40;;
41623;SDS011;27319;50.306;18.926;2023-08-06T15:03:12;1.73;;;1.35;;
41623;SDS011;27319;50.306;18.926;2023-08-06T15:07:13;1.30;;;1.20;;
41623;SDS011;27319;50.306;18.926;2023-08-06T15:11:13;1.30;;;1.20;;
41623;SDS011;27319;50.306;18.926;2023-08-06T15:15:14;1.40;;;1.30;;
41623;SDS011;27319;50.306;18.926;2023-08-06T15:19:15;1.33;;;1.20;;
41623;SDS011;27319;50.306;18.926;2023-08-06T15:23:15;1.63;;;1.30;;
41623;SDS011;27319;50.306;18.926;2023-08-06T15:27:16;1.55;;;1.30;;
41623;SDS011;27319;50.306;18.926;2023-08-06T15:31:19;1.95;;;1.48;;
41623;SDS011;27319;50.306;18.926;2023-08-06T15:35:18;2.53;;;1.40;;
41623;SDS011;27319;50.306;18.926;2023-08-06T15:39:19;1.63;;;1.30;;
41623;SDS011;27319;50.306;18.926;2023-08-06T15:43:20;2.20;;;1.48;;
41623;SDS011;27319;50.306;18.926;2023-08-06T15:47:20;1.55;;;1.35;;
41623;SDS011;27319;50.306;18.926;2023-08-06T15:51:21;2.13;;;1.60;;
41623;SDS011;27319;50.306;18.926;2023-08-06T15:55:22;1.30;;;1.10;;
41623;SDS011;27319;50.306;18.926;2023-08-06T15:59:23;2.30;;;1.35;;
41623;SDS011;27319;50.306;18.926;2023-08-06T16:03:23;2.05;;;1.42;;
41623;SDS011;27319;50.306;18.926;2023-08-06T16:07:24;1.60;;;1.30;;
41623;SDS011;27319;50.306;18.926;2023-08-06T16:11:27;1.85;;;1.38;;
41623;SDS011;27319;50.306;18.926;2023-08-06T16:15:28;1.30;;;1.20;;
41623;SDS011;27319;50.306;18.926;2023-08-06T16:19:29;1.90;;;1.38;;
41623;SDS011;27319;50.306;18.926;2023-08-06T16:23:29;2.20;;;1.33;;
41623;SDS011;27319;50.306;18.926;2023-08-06T16:27:30;2.35;;;1.50;;
41623;SDS011;27319;50.306;18.926;2023-08-06T16:31:31;1.73;;;1.20;;
41623;SDS011;27319;50.306;18.926;2023-08-06T16:35:32;1.20;;;1.10;;
41623;SDS011;27319;50.306;18.926;2023-08-06T16:39:32;1.15;;;1.05;;
41623;SDS011;27319;50.306;18.926;2023-08-06T16:43:33;0.90;;;0.85;;
41623;SDS011;27319;50.306;18.926;2023-08-06T16:47:34;2.50;;;1.40;;
41623;SDS011;27319;50.306;18.926;2023-08-06T16:51:34;1.00;;;0.85;;
41623;SDS011;27319;50.306;18.926;2023-08-06T16:55:35;1.10;;;1.00;;
41623;SDS011;27319;50.306;18.926;2023-08-06T16:59:36;0.90;;;0.90;;
41623;SDS011;27319;50.306;18.926;2023-08-06T17:03:36;1.48;;;0.90;;
41623;SDS011;27319;50.306;18.926;2023-08-06T17:07:37;2.25;;;1.02;;
41623;SDS011;27319;50.306;18.926;2023-08-06T17:10:38;1.20;;;1.10;;
41623;SDS011;27319;50.306;18.926;2023-08-06T17:13:39;1.17;;;1.00;;
41623;SDS011;27319;50.306;18.926;2023-08-06T17:16:40;1.73;;;1.20;;
41623;SDS011;27319;50.306;18.926;2023-08-06T17:19:44;1.20;;;1.10;;
41623;SDS011;27319;50.306;18.926;2023-08-06T17:22:44;1.20;;;1.10;;
41623;SDS011;27319;50.306;18.926;2023-08-06T17:25:45;1.75;;;1.30;;
41623;SDS011;27319;50.306;18.926;2023-08-06T17:28:46;2.30;;;1.33;;
41623;SDS011;27319;50.306;18.926;2023-08-06T17:31:47;2.65;;;1.40;;
41623;SDS011;27319;50.306;18.926;2023-08-06T17:34:48;3.00;;;1.50;;
41623;SDS011;27319;50.306;18.926;2023-08-06T17:37:49;1.40;;;1.20;;
41623;SDS011;27319;50.306;18.926;2023-08-06T17:40:53;3.50;;;1.45;;
41623;SDS011;27319;50.306;18.926;2023-08-06T17:43:55;2.13;;;1.27;;
41623;SDS011;27319;50.306;18.926;2023-08-06T17:46:58;1.52;;;1.20;;
41623;SDS011;27319;50.306;18.926;2023-08-06T17:49:59;1.20;;;1.10;;
41623;SDS011;27319;50.306;18.926;2023-08-06T17:53:07;2.10;;;1.05;;
41623;SDS011;27319;50.306;18.926;2023-08-06T17:56:08;2.85;;;1.20;;
41623;SDS011;27319;50.306;18.926;2023-08-06T17:59:10;2.05;;;1.40;;
41623;SDS011;27319;50.306;18.926;2023-08-06T18:02:11;2.17;;;1.50;;
41623;SDS011;27319;50.306;18.926;2023-08-06T18:05:15;3.22;;;1.70;;
41623;SDS011;27319;50.306;18.926;2023-08-06T18:08:16;3.30;;;1.42;;
41623;SDS011;27319;50.306;18.926;2023-08-06T18:11:17;3.50;;;1.50;;
41623;SDS011;27319;50.306;18.926;2023-08-06T18:14:18;5.28;;;2.45;;
41623;SDS011;27319;50.306;18.926;2023-08-06T18:17:20;2.55;;;1.77;;
41623;SDS011;27319;50.306;18.926;2023-08-06T18:20:21;2.08;;;1.52;;
41623;SDS011;27319;50.306;18.926;2023-08-06T18:23:22;1.60;;;1.50;;
41623;SDS011;27319;50.306;18.926;2023-08-06T18:26:23;1.40;;;1.30;;
41623;SDS011;27319;50.306;18.926;2023-08-06T18:29:24;1.27;;;1.13;;
41623;SDS011;27319;50.306;18.926;2023-08-06T18:32:26;1.05;;;0.98;;
41623;SDS011;27319;50.306;18.926;2023-08-06T18:35:26;1.30;;;1.20;;
41623;SDS011;27319;50.306;18.926;2023-08-06T18:38:27;1.58;;;1.48;;
41623;SDS011;27319;50.306;18.926;2023-08-06T18:41:28;2.00;;;1.33;;
41623;SDS011;27319;50.306;18.926;2023-08-06T18:44:29;1.98;;;1.50;;
41623;SDS011;27319;50.306;18.926;2023-08-06T18:47:30;4.60;;;2.08;;
41623;SDS011;27319;50.306;18.926;2023-08-06T18:50:31;2.13;;;1.70;;
41623;SDS011;27319;50.306;18.926;2023-08-06T18:53:37;1.80;;;1.58;;
41623;SDS011;27319;50.306;18.926;2023-08-06T18:56:38;3.05;;;1.70;;
41623;SDS011;27319;50.306;18.926;2023-08-06T18:59:39;2.40;;;2.00;;
41623;SDS011;27319;50.306;18.926;2023-08-06T19:02:40;2.03;;;1.60;;
41623;SDS011;27319;50.306;18.926;2023-08-06T19:06:41;2.25;;;1.20;;
41623;SDS011;27319;50.306;18.926;2023-08-06T19:10:42;1.73;;;1.50;;
41623;SDS011;27319;50.306;18.926;2023-08-06T19:14:42;1.52;;;1.20;;
41623;SDS011;27319;50.306;18.926;2023-08-06T19:18:43;1.98;;;1.38;;
41623;SDS011;27319;50.306;18.926;2023-08-06T19:22:44;1.40;;;1.17;;
41623;SDS011;27319;50.306;18.926;2023-08-06T19:26:45;2.10;;;1.45;;
41623;SDS011;27319;50.306;18.926;2023-08-06T19:30:46;3.22;;;1.30;;
41623;SDS011;27319;50.306;18.926;2023-08-06T19:34:47;1.98;;;1.33;;
41623;SDS011;27319;50.306;18.926;2023-08-06T19:38:47;1.80;;;1.48;;
41623;SDS011;27319;50.306;18.926;2023-08-06T19:42:48;1.92;;;1.60;;
41623;SDS011;27319;50.306;18.926;2023-08-06T19:46:49;2.42;;;1.88;;
41623;SDS011;27319;50.306;18.926;2023-08-06T19:50:52;3.45;;;1.85;;
41623;SDS011;27319;50.306;18.926;2023-08-06T19:53:56;2.72;;;1.70;;
41623;SDS011;27319;50.306;18.926;2023-08-06T19:56:56;2.08;;;1.60;;
41623;SDS011;27319;50.306;18.926;2023-08-06T19:59:57;1.70;;;1.45;;
41623;SDS011;27319;50.306;18.926;2023-08-06T20:02:58;2.15;;;1.67;;
41623;SDS011;27319;50.306;18.926;2023-08-06T20:06:00;4.53;;;2.10;;
41623;SDS011;27319;50.306;18.926;2023-08-06T20:09:04;2.47;;;1.77;;
41623;SDS011;27319;50.306;18.926;2023-08-06T20:12:05;3.90;;;1.98;;
41623;SDS011;27319;50.306;18.926;2023-08-06T20:15:06;3.60;;;1.98;;
41623;SDS011;27319;50.306;18.926;2023-08-06T20:18:08;2.90;;;2.00;;
41623;SDS011;27319;50.306;18.926;2023-08-06T20:21:11;2.50;;;1.95;;
41623;SDS011;27319;50.306;18.926;2023-08-06T20:24:14;2.55;;;2.00;;
41623;SDS011;27319;50.306;18.926;2023-08-06T20:27:14;3.03;;;2.00;;
41623;SDS011;27319;50.306;18.926;2023-08-06T20:30:16;3.10;;;1.70;;
41623;SDS011;27319;50.306;18.926;2023-08-06T20:33:16;4.88;;;1.67;;
41623;SDS011;27319;50.306;18.926;2023-08-06T20:36:17;2.13;;;1.80;;
41623;SDS011;27319;50.306;18.926;2023-08-06T20:39:18;2.15;;;1.55;;
41623;SDS011;27319;50.306;18.926;2023-08-06T20:43:19;2.08;;;1.73;;
41623;SDS011;27319;50.306;18.926;2023-08-06T20:47:20;2.85;;;1.90;;
41623;SDS011;27319;50.306;18.926;2023-08-06T20:51:20;3.45;;;1.60;;
41623;SDS011;27319;50.306;18.926;2023-08-06T20:55:24;2.28;;;1.60;;
41623;SDS011;27319;50.306;18.926;2023-08-06T20:59:22;1.83;;;1.55;;
41623;SDS011;27319;50.306;18.926;2023-08-06T21:03:23;2.10;;;1.70;;
41623;SDS011;27319;50.306;18.926;2023-08-06T21:07:23;2.20;;;1.63;;
41623;SDS011;27319;50.306;18.926;2023-08-06T21:11:23;2.80;;;1.88;;
41623;SDS011;27319;50.306;18.926;2023-08-06T21:15:24;2.10;;;1.65;;
41623;SDS011;27319;50.306;18.926;2023-08-06T21:19:25;2.08;;;1.70;;
41623;SDS011;27319;50.306;18.926;2023-08-06T21:23:25;2.70;;;1.70;;
41623;SDS011;27319;50.306;18.926;2023-08-06T21:27:26;1.98;;;1.60;;
41623;SDS011;27319;50.306;18.926;2023-08-06T21:31:27;1.95;;;1.60;;
41623;SDS011;27319;50.306;18.926;2023-08-06T21:35:27;2.15;;;1.80;;
41623;SDS011;27319;50.306;18.926;2023-08-06T21:39:28;2.42;;;2.15;;
41623;SDS011;27319;50.306;18.926;2023-08-06T21:43:29;2.63;;;1.85;;
41623;SDS011;27319;50.306;18.926;2023-08-06T21:47:29;2.13;;;1.67;;
41623;SDS011;27319;50.306;18.926;2023-08-06T21:51:30;2.47;;;1.70;;
41623;SDS011;27319;50.306;18.926;2023-08-06T21:57:40;2.50;;;1.88;;
41623;SDS011;27319;50.306;18.926;2023-08-06T22:00:41;1.85;;;1.52;;
41623;SDS011;27319;50.306;18.926;2023-08-06T22:03:42;2.20;;;1.75;;
41623;SDS011;27319;50.306;18.926;2023-08-06T22:06:43;2.03;;;1.75;;
41623;SDS011;27319;50.306;18.926;2023-08-06T22:09:44;2.50;;;1.70;;
41623;SDS011;27319;50.306;18.926;2023-08-06T22:12:45;3.83;;;2.15;;
41623;SDS011;27319;50.306;18.926;2023-08-06T22:15:46;2.65;;;1.85;;
41623;SDS011;27319;50.306;18.926;2023-08-06T22:19:47;10.60;;;3.22;;